createdAt,value
2022-09-24T00:01:38.708Z,12.09
2022-09-24T00:04:11.677Z,11.91
2022-09-24T00:06:44.481Z,11.69
2022-09-24T00:09:14.847Z,11.58
2022-09-24T00:11:45.460Z,11.55
2022-09-24T00:14:15.895Z,11.46
2022-09-24T00:16:48.509Z,11.45
2022-09-24T00:19:18.152Z,11.43
2022-09-24T00:21:47.974Z,11.44
2022-09-24T00:24:39.439Z,11.46
2022-09-24T00:27:06.726Z,11.57
2022-09-24T00:29:36.787Z,11.52
2022-09-24T00:32:10.377Z,11.43
2022-09-24T00:34:39.946Z,11.34
2022-09-24T00:37:09.354Z,11.29
2022-09-24T00:39:39.251Z,11.24
2022-09-24T00:42:09.799Z,11.25
2022-09-24T00:44:57.778Z,11.24
2022-09-24T00:47:41.718Z,11.28
2022-09-24T00:50:17.726Z,11.31
2022-09-24T00:52:50.210Z,11.31
2022-09-24T00:55:20.843Z,11.29
2022-09-24T00:57:52.082Z,11.29
2022-09-24T01:00:22.085Z,11.29
2022-09-24T01:02:57.951Z,11.53
2022-09-24T01:05:27.363Z,11.52
2022-09-24T01:07:58.128Z,11.52
2022-09-24T01:10:51.729Z,11.42
2022-09-24T01:13:43.300Z,11.33
2022-09-24T01:16:17.886Z,11.25
2022-09-24T01:18:53.183Z,11.26
2022-09-24T01:21:38.719Z,11.21
2022-09-24T01:24:28.849Z,11.26
2022-09-24T01:27:04.672Z,11.32
2022-09-24T01:30:03.854Z,11.21
2022-09-24T01:32:38.181Z,11.19
2022-09-24T01:35:12.298Z,11.32
2022-09-24T01:37:43.430Z,11.43
2022-09-24T01:40:14.373Z,11.39
2022-09-24T01:42:46.241Z,11.57
2022-09-24T01:45:20.049Z,11.52
2022-09-24T01:47:50.106Z,11.63
2022-09-24T01:50:20.998Z,11.62
2022-09-24T01:52:55.325Z,11.49
2022-09-24T01:55:28.274Z,11.55
2022-09-24T01:58:00.073Z,11.65
2022-09-24T02:00:32.465Z,11.59
2022-09-24T02:03:08.775Z,11.48
2022-09-24T02:05:42.394Z,11.46
2022-09-24T02:08:13.866Z,11.53
2022-09-24T02:10:48.541Z,11.40
2022-09-24T02:13:20.026Z,11.31
2022-09-24T02:15:53.709Z,11.26
2022-09-24T02:18:26.987Z,11.25
2022-09-24T02:20:57.203Z,11.21
2022-09-24T02:23:29.110Z,11.21
2022-09-24T02:26:02.133Z,11.15
2022-09-24T02:28:32.386Z,11.07
2022-09-24T02:31:08.328Z,10.99
2022-09-24T02:33:52.080Z,10.97
2022-09-24T02:36:21.686Z,10.97
2022-09-24T02:38:51.059Z,11.05
2022-09-24T02:41:23.450Z,11.02
2022-09-24T02:43:52.894Z,11.01
2022-09-24T02:46:24.947Z,11.06
2022-09-24T02:48:54.362Z,11.20
2022-09-24T02:51:24.344Z,11.28
2022-09-24T02:53:53.737Z,11.46
2022-09-24T02:56:23.111Z,11.52
2022-09-24T02:58:53.413Z,11.73
2022-09-24T03:01:25.625Z,11.96
2022-09-24T03:03:55.203Z,11.87
2022-09-24T03:06:25.029Z,12.00
2022-09-24T03:08:54.647Z,11.91
2022-09-24T03:11:24.369Z,11.48
2022-09-24T03:13:54.106Z,11.41
2022-09-24T03:16:26.364Z,11.20
2022-09-24T03:18:55.853Z,11.00
2022-09-24T03:21:25.717Z,10.93
2022-09-24T03:23:55.127Z,10.88
2022-09-24T03:26:24.580Z,10.87
2022-09-24T03:28:53.956Z,10.87
2022-09-24T03:31:24.329Z,10.83
2022-09-24T03:33:54.539Z,10.84
2022-09-24T03:36:25.830Z,10.82
2022-09-24T03:38:57.783Z,10.80
2022-09-24T03:41:28.467Z,10.81
2022-09-24T03:43:57.938Z,10.77
2022-09-24T03:46:30.488Z,10.74
2022-09-24T03:49:00.798Z,10.71
2022-09-24T03:51:30.354Z,10.69
2022-09-24T03:53:59.733Z,10.67
2022-09-24T03:56:29.106Z,10.69
2022-09-24T03:58:58.506Z,10.66
2022-09-24T04:01:32.559Z,10.65
2022-09-24T04:04:03.321Z,10.63
2022-09-24T04:06:32.834Z,10.72
2022-09-24T04:09:02.213Z,10.80
2022-09-24T04:11:34.179Z,10.87
2022-09-24T04:14:03.564Z,11.01
2022-09-24T04:16:36.442Z,10.85
2022-09-24T04:19:08.146Z,10.73
2022-09-24T04:21:37.778Z,10.66
2022-09-24T04:24:07.905Z,10.67
2022-09-24T04:26:37.402Z,10.66
2022-09-24T04:29:08.059Z,10.62
2022-09-24T04:31:40.487Z,10.61
2022-09-24T04:34:10.078Z,10.60
2022-09-24T04:36:39.468Z,10.62
2022-09-24T04:39:08.849Z,10.63
2022-09-24T04:41:38.242Z,10.65
2022-09-24T04:44:08.521Z,10.66
2022-09-24T04:46:40.995Z,10.66
2022-09-24T04:49:11.861Z,10.66
2022-09-24T04:51:41.267Z,10.64
2022-09-24T04:54:11.493Z,10.66
2022-09-24T04:56:40.913Z,10.77
2022-09-24T04:59:10.310Z,11.01
2022-09-24T05:01:42.376Z,11.02
2022-09-24T05:04:11.825Z,10.98
2022-09-24T05:06:41.635Z,11.06
2022-09-24T05:09:12.771Z,11.09
2022-09-24T05:11:42.483Z,11.16
2022-09-24T05:14:11.858Z,11.05
2022-09-24T05:16:43.840Z,11.11
2022-09-24T05:19:13.200Z,11.45
2022-09-24T05:21:42.565Z,11.69
2022-09-24T05:24:11.933Z,11.62
2022-09-24T05:26:53.828Z,11.71
2022-09-24T05:29:23.190Z,11.89
2022-09-24T05:31:55.139Z,11.83
2022-09-24T05:34:24.543Z,11.95
2022-09-24T05:36:53.930Z,12.00
2022-09-24T05:39:23.310Z,12.04
2022-09-24T05:41:52.700Z,11.88
2022-09-24T05:44:22.403Z,11.86
2022-09-24T05:46:52.041Z,12.04
2022-09-24T05:49:24.047Z,12.04
2022-09-24T05:51:53.958Z,11.99
2022-09-24T05:54:23.361Z,11.96
2022-09-24T05:56:52.806Z,12.01
2022-09-24T05:59:22.238Z,12.31
2022-09-24T06:01:52.262Z,12.22
2022-09-24T06:04:24.290Z,12.20
2022-09-24T06:06:53.706Z,11.98
2022-09-24T06:09:23.084Z,11.55
2022-09-24T06:11:53.950Z,11.34
2022-09-24T06:14:23.357Z,11.19
2022-09-24T06:16:52.740Z,11.11
2022-09-24T06:19:24.722Z,11.09
2022-09-24T06:21:54.518Z,11.05
2022-09-24T06:24:23.930Z,11.01
2022-09-24T06:26:53.316Z,10.92
2022-09-24T06:29:22.702Z,10.94
2022-09-24T06:31:53.298Z,10.91
2022-09-24T06:34:25.307Z,10.87
2022-09-24T06:36:57.084Z,10.82
2022-09-24T06:39:27.067Z,10.83
2022-09-24T06:41:56.758Z,10.90
2022-09-24T06:44:27.590Z,10.83
2022-09-24T06:46:57.246Z,10.80
2022-09-24T06:49:33.873Z,10.80
2022-09-24T06:52:04.910Z,10.78
2022-09-24T06:54:34.294Z,10.77
2022-09-24T06:57:04.292Z,10.97
2022-09-24T06:59:33.663Z,11.13
2022-09-24T07:02:03.091Z,10.99
2022-09-24T07:04:35.083Z,10.80
2022-09-24T07:07:16.951Z,10.80
2022-09-24T07:09:46.317Z,10.99
2022-09-24T07:12:15.680Z,11.20
2022-09-24T07:14:45.064Z,11.25
2022-09-24T07:17:14.478Z,11.14
2022-09-24T07:19:46.419Z,10.94
2022-09-24T07:22:16.017Z,10.86
2022-09-24T07:24:45.410Z,10.82
2022-09-24T07:27:15.585Z,10.78
2022-09-24T07:29:45.015Z,10.81
2022-09-24T07:32:14.403Z,10.80
2022-09-24T07:34:46.480Z,10.71
2022-09-24T07:37:15.879Z,10.66
2022-09-24T07:39:45.663Z,10.63
2022-09-24T07:42:15.087Z,10.60
2022-09-24T07:44:45.254Z,10.59
2022-09-24T07:47:15.697Z,10.58
2022-09-24T07:49:47.785Z,10.63
2022-09-24T07:52:19.977Z,10.61
2022-09-24T07:54:49.835Z,10.58
2022-09-24T07:57:19.234Z,10.60
2022-09-24T07:59:48.765Z,10.59
2022-09-24T08:02:19.695Z,10.63
2022-09-24T08:04:51.677Z,10.67
2022-09-24T08:07:21.182Z,10.71
2022-09-24T08:09:50.541Z,10.71
2022-09-24T08:12:19.962Z,10.71
2022-09-24T08:14:49.374Z,10.73
2022-09-24T08:17:18.785Z,10.75
2022-09-24T08:19:52.207Z,10.76
2022-09-24T08:22:21.834Z,10.79
2022-09-24T08:24:51.210Z,10.78
2022-09-24T08:27:20.612Z,10.79
2022-09-24T08:29:50.146Z,10.85
2022-09-24T08:32:19.582Z,10.87
2022-09-24T08:34:52.766Z,10.87
2022-09-24T08:37:22.356Z,10.86
2022-09-24T08:39:51.742Z,10.88
2022-09-24T08:42:31.507Z,10.88
2022-09-24T08:45:14.003Z,10.84
2022-09-24T08:47:48.436Z,10.74
2022-09-24T08:50:23.447Z,10.79
2022-09-24T08:53:14.904Z,10.85
2022-09-24T08:55:47.417Z,10.85
2022-09-24T08:58:32.621Z,10.87
2022-09-24T09:01:08.463Z,10.93
2022-09-24T09:03:40.203Z,10.88
2022-09-24T09:06:26.583Z,10.87
2022-09-24T09:09:07.343Z,10.88
2022-09-24T09:11:39.721Z,10.90
2022-09-24T09:14:15.314Z,10.93
2022-09-24T09:16:50.395Z,10.92
2022-09-24T09:19:20.502Z,11.00
2022-09-24T09:21:55.713Z,11.05
2022-09-24T09:24:31.229Z,11.10
2022-09-24T09:27:01.073Z,11.04
2022-09-24T09:29:30.826Z,11.06
2022-09-24T09:32:07.716Z,11.10
2022-09-24T09:34:50.643Z,11.14
2022-09-24T09:37:30.170Z,11.12
2022-09-24T09:40:10.230Z,11.16
2022-09-24T09:42:40.820Z,11.14
2022-09-24T09:45:28.742Z,11.19
2022-09-24T09:47:59.681Z,11.23
2022-09-24T09:50:31.466Z,11.33
2022-09-24T09:53:04.479Z,11.16
2022-09-24T09:55:37.407Z,11.24
2022-09-24T09:58:19.819Z,11.28
2022-09-24T10:00:50.159Z,11.31
2022-09-24T10:03:28.413Z,11.34
2022-09-24T10:05:59.282Z,11.31
2022-09-24T10:08:31.679Z,11.23
2022-09-24T10:11:02.939Z,11.26
2022-09-24T10:13:33.476Z,11.18
2022-09-24T10:16:04.960Z,11.24
2022-09-24T10:18:36.384Z,11.24
2022-09-24T10:21:09.085Z,11.15
2022-09-24T10:23:43.311Z,11.20
2022-09-24T10:26:13.235Z,11.26
2022-09-24T10:28:57.202Z,11.31
2022-09-24T10:31:29.087Z,11.37
2022-09-24T10:34:00.345Z,11.32
2022-09-24T10:36:32.535Z,11.39
2022-09-24T10:39:14.506Z,11.47
2022-09-24T10:41:49.234Z,11.47
2022-09-24T10:44:20.245Z,12.00
2022-09-24T10:47:10.041Z,11.95
2022-09-24T10:49:54.299Z,11.83
2022-09-24T10:52:37.429Z,12.25
2022-09-24T10:55:24.950Z,12.06
2022-09-24T10:58:05.955Z,12.16
2022-09-24T11:00:51.528Z,12.19
2022-09-24T11:03:48.470Z,12.23
2022-09-24T11:06:29.320Z,12.23
2022-09-24T11:09:13.697Z,12.17
2022-09-24T11:12:00.783Z,12.56
2022-09-24T11:15:00.659Z,12.14
2022-09-24T11:18:00.736Z,12.47
2022-09-24T11:20:40.002Z,12.75
2022-09-24T11:23:46.931Z,12.86
2022-09-24T11:26:30.298Z,12.76
2022-09-24T11:29:12.318Z,12.29
2022-09-24T11:31:45.004Z,12.67
2022-09-24T11:34:41.617Z,12.33
2022-09-24T11:37:26.510Z,12.13
2022-09-24T11:40:14.752Z,12.08
2022-09-24T11:42:58.307Z,12.43
2022-09-24T11:45:56.090Z,12.34
2022-09-24T11:48:55.364Z,12.68
2022-09-24T11:51:37.211Z,12.73
2022-09-24T11:54:15.254Z,12.75
2022-09-24T11:56:51.995Z,12.63
2022-09-24T11:59:39.800Z,12.80
2022-09-24T12:02:19.327Z,12.44
2022-09-24T12:04:57.867Z,12.17
2022-09-24T12:07:34.367Z,12.35
2022-09-24T12:10:10.227Z,12.74
2022-09-24T12:12:42.717Z,12.84
2022-09-24T12:15:19.445Z,12.82
2022-09-24T12:17:54.681Z,12.43
2022-09-24T12:20:28.349Z,12.55
2022-09-24T12:23:01.771Z,12.62
2022-09-24T12:25:34.094Z,12.64
2022-09-24T12:28:04.185Z,12.64
2022-09-24T12:30:53.043Z,12.54
2022-09-24T12:33:32.653Z,12.89
2022-09-24T12:36:06.623Z,13.15
2022-09-24T12:38:45.104Z,13.17
2022-09-24T12:41:29.527Z,13.45
2022-09-24T12:44:04.674Z,13.35
2022-09-24T12:46:37.490Z,13.36
2022-09-24T12:49:21.585Z,13.10
2022-09-24T12:51:51.791Z,13.25
2022-09-24T12:54:29.487Z,13.58
2022-09-24T12:57:13.007Z,13.88
2022-09-24T12:59:53.819Z,13.47
2022-09-24T13:02:24.995Z,13.23
2022-09-24T13:05:20.831Z,13.41
2022-09-24T13:08:04.836Z,13.62
2022-09-24T13:10:39.397Z,13.39
2022-09-24T13:13:27.285Z,13.30
2022-09-24T13:16:08.354Z,13.51
2022-09-24T13:18:41.742Z,13.29
2022-09-24T13:21:24.406Z,13.42
2022-09-24T13:23:53.934Z,13.52
2022-09-24T13:26:35.574Z,13.55
2022-09-24T13:29:06.479Z,13.69
2022-09-24T13:31:45.651Z,13.78
2022-09-24T13:34:19.287Z,13.42
2022-09-24T13:36:55.173Z,13.47
2022-09-24T13:39:27.622Z,13.43
2022-09-24T13:42:02.296Z,13.49
2022-09-24T13:44:34.362Z,13.55
2022-09-24T13:47:08.083Z,13.66
2022-09-24T13:49:37.782Z,13.47
2022-09-24T13:52:17.356Z,13.28
2022-09-24T13:54:53.045Z,13.15
2022-09-24T13:57:25.370Z,13.04
2022-09-24T14:00:20.858Z,13.20
2022-09-24T14:02:59.282Z,13.16
2022-09-24T14:05:29.610Z,13.12
2022-09-24T14:08:04.682Z,13.10
2022-09-24T14:10:36.087Z,13.14
2022-09-24T14:13:15.572Z,13.07
2022-09-24T14:15:53.489Z,13.04
2022-09-24T14:18:23.574Z,13.06
2022-09-24T14:20:57.111Z,13.08
2022-09-24T14:23:33.095Z,13.01
2022-09-24T14:26:03.037Z,13.07
2022-09-24T14:28:33.003Z,13.22
2022-09-24T14:31:03.489Z,13.15
2022-09-24T14:33:34.757Z,13.18
2022-09-24T14:36:05.166Z,13.06
2022-09-24T14:38:38.407Z,12.93
2022-09-24T14:41:09.566Z,12.82
2022-09-24T14:43:44.818Z,12.77
2022-09-24T14:46:20.107Z,12.81
2022-09-24T14:48:49.581Z,12.81
2022-09-24T14:51:30.118Z,12.83
2022-09-24T14:54:21.468Z,12.78
2022-09-24T14:56:50.858Z,12.80
2022-09-24T14:59:31.550Z,12.79
2022-09-24T15:02:19.633Z,12.82
2022-09-24T15:04:50.693Z,12.84
2022-09-24T15:07:22.126Z,12.82
2022-09-24T15:09:55.974Z,12.76
2022-09-24T15:12:30.977Z,12.73
2022-09-24T15:15:02.651Z,12.76
2022-09-24T15:17:33.979Z,12.77
2022-09-24T15:20:04.303Z,12.76
2022-09-24T15:22:33.842Z,12.75
2022-09-24T15:25:06.011Z,12.75
2022-09-24T15:27:36.443Z,12.78
2022-09-24T15:30:07.730Z,12.76
2022-09-24T15:32:37.759Z,12.68
2022-09-24T15:35:09.582Z,12.72
2022-09-24T15:37:41.376Z,12.77
2022-09-24T15:40:20.148Z,12.75
2022-09-24T15:42:49.593Z,12.77
2022-09-24T15:45:21.382Z,12.78
2022-09-24T15:47:50.925Z,12.66
2022-09-24T15:50:21.261Z,12.72
2022-09-24T15:52:55.104Z,12.70
2022-09-24T15:55:27.099Z,12.76
2022-09-24T15:57:56.585Z,12.73
2022-09-24T16:00:27.570Z,12.73
2022-09-24T16:02:58.959Z,12.71
2022-09-24T16:05:28.773Z,12.65
2022-09-24T16:07:58.235Z,12.63
2022-09-24T16:10:30.237Z,12.64
2022-09-24T16:12:59.599Z,12.63
2022-09-24T16:15:28.981Z,12.63
2022-09-24T16:17:58.392Z,12.59
2022-09-24T16:20:27.817Z,12.58
2022-09-24T16:22:57.181Z,12.59
2022-09-24T16:25:27.502Z,12.57
2022-09-24T16:28:00.632Z,12.53
2022-09-24T16:30:30.082Z,12.54
2022-09-24T16:32:59.460Z,12.56
2022-09-24T16:35:28.827Z,12.54
2022-09-24T16:37:58.230Z,12.54
2022-09-24T16:40:27.760Z,12.51
2022-09-24T16:43:00.066Z,12.51
2022-09-24T16:45:29.526Z,12.52
2022-09-24T16:47:58.909Z,12.66
2022-09-24T16:50:28.577Z,13.25
2022-09-24T16:52:58.009Z,13.29
2022-09-24T16:55:27.387Z,13.21
2022-09-24T16:57:59.356Z,13.25
2022-09-24T17:00:29.118Z,13.28
2022-09-24T17:02:59.698Z,13.22
2022-09-24T17:05:29.142Z,13.36
2022-09-24T17:07:58.521Z,13.45
2022-09-24T17:10:25.396Z,13.39
2022-09-24T17:12:54.778Z,13.43
2022-09-24T17:15:27.344Z,13.45
2022-09-24T17:17:56.827Z,13.25
2022-09-24T17:20:26.447Z,13.34
2022-09-24T17:22:56.310Z,13.27
2022-09-24T17:25:26.839Z,13.18
2022-09-24T17:27:56.258Z,13.27
2022-09-24T17:30:28.271Z,13.30
2022-09-24T17:32:57.758Z,13.22
2022-09-24T17:35:27.142Z,13.18
2022-09-24T17:37:56.506Z,13.18
2022-09-24T17:40:26.829Z,13.19
2022-09-24T17:42:56.252Z,13.24
2022-09-24T17:45:29.473Z,13.23
2022-09-24T17:48:00.422Z,13.23
2022-09-24T17:50:30.163Z,13.25
2022-09-24T17:53:00.946Z,13.20
2022-09-24T17:55:31.047Z,13.12
2022-09-24T17:58:00.564Z,13.00
2022-09-24T18:00:32.741Z,12.96
2022-09-24T18:03:02.162Z,12.88
2022-09-24T18:05:31.560Z,12.79
2022-09-24T18:08:00.982Z,12.78
2022-09-24T18:10:30.383Z,12.67
2022-09-24T18:12:59.819Z,12.52
2022-09-24T18:15:32.140Z,12.34
2022-09-24T18:18:01.522Z,12.24
2022-09-24T18:20:31.814Z,12.19
2022-09-24T18:23:01.288Z,12.08
2022-09-24T18:25:30.697Z,12.00
2022-09-24T18:28:01.605Z,11.99
2022-09-24T18:30:33.555Z,11.95
2022-09-24T18:33:03.540Z,11.88
2022-09-24T18:35:32.926Z,11.83
2022-09-24T18:38:02.334Z,11.74
2022-09-24T18:40:31.770Z,11.69
2022-09-24T18:43:01.207Z,11.71
2022-09-24T18:45:33.235Z,11.73
2022-09-24T18:48:02.674Z,11.75
2022-09-24T18:50:32.070Z,11.78
2022-09-24T18:53:01.487Z,11.78
2022-09-24T18:55:31.138Z,11.77
2022-09-24T18:58:00.519Z,11.79
2022-09-24T19:00:57.305Z,11.78
2022-09-24T19:03:29.717Z,11.75
2022-09-24T19:06:03.454Z,11.75
2022-09-24T19:08:32.890Z,11.74
2022-09-24T19:11:09.296Z,11.74
2022-09-24T19:13:39.910Z,11.73
2022-09-24T19:16:11.105Z,11.73
2022-09-24T19:18:43.705Z,11.73
2022-09-24T19:21:15.586Z,11.72
2022-09-24T19:23:47.544Z,11.74
2022-09-24T19:26:18.718Z,11.72
2022-09-24T19:28:50.544Z,11.72
2022-09-24T19:31:22.190Z,11.73
2022-09-24T19:33:55.705Z,11.71
2022-09-24T19:36:25.099Z,11.71
2022-09-24T19:38:54.779Z,11.73
2022-09-24T19:41:27.192Z,11.71
2022-09-24T19:44:02.106Z,11.71
2022-09-24T19:46:34.614Z,11.73
2022-09-24T19:49:06.862Z,11.71
2022-09-24T19:51:36.950Z,11.68
2022-09-24T19:54:08.102Z,11.69
2022-09-24T19:56:38.229Z,11.66
2022-09-24T19:59:09.534Z,11.63
2022-09-24T20:01:39.066Z,11.63
2022-09-24T20:04:11.200Z,11.62
2022-09-24T20:06:40.877Z,11.65
2022-09-24T20:09:10.582Z,11.65
2022-09-24T20:11:39.989Z,11.65
2022-09-24T20:14:11.367Z,11.67
2022-09-24T20:16:42.805Z,11.68
2022-09-24T20:19:17.925Z,11.70
2022-09-24T20:21:47.610Z,11.72
2022-09-24T20:24:17.005Z,11.70
2022-09-24T20:26:58.881Z,11.71
2022-09-24T20:29:28.513Z,12.21
2022-09-24T20:31:58.216Z,12.59
2022-09-24T20:34:31.740Z,12.62
2022-09-24T20:37:01.622Z,12.48
2022-09-24T20:39:31.414Z,12.33
2022-09-24T20:42:06.065Z,12.44
2022-09-24T20:44:35.958Z,12.63
2022-09-24T20:47:05.370Z,12.43
2022-09-24T20:49:37.334Z,12.32
2022-09-24T20:52:06.965Z,12.25
2022-09-24T20:54:36.494Z,12.31
2022-09-24T20:57:05.943Z,12.23
2022-09-24T20:59:36.282Z,12.22
2022-09-24T21:02:06.384Z,12.26
2022-09-24T21:04:39.749Z,12.13
2022-09-24T21:07:09.233Z,12.15
2022-09-24T21:09:38.652Z,12.25
2022-09-24T21:12:08.617Z,12.43
2022-09-24T21:14:38.198Z,12.48
2022-09-24T21:17:10.224Z,12.41
2022-09-24T21:19:42.175Z,12.35
2022-09-24T21:22:12.614Z,12.21
2022-09-24T21:24:42.335Z,12.02
2022-09-24T21:27:11.716Z,12.12
2022-09-24T21:29:41.113Z,12.38
2022-09-24T21:32:11.039Z,12.42
2022-09-24T21:34:44.104Z,12.45
2022-09-24T21:37:14.953Z,12.36
2022-09-24T21:39:46.210Z,12.33
2022-09-24T21:42:19.783Z,12.21
2022-09-24T21:44:49.158Z,12.15
2022-09-24T21:47:18.569Z,12.13
2022-09-24T21:49:51.342Z,12.21
2022-09-24T21:52:20.735Z,12.23
2022-09-24T21:54:50.110Z,12.25
2022-09-24T21:57:19.474Z,12.27
2022-09-24T22:00:01.317Z,12.25
2022-09-24T22:02:31.568Z,12.34
2022-09-24T22:05:04.017Z,12.32
2022-09-24T22:07:33.634Z,12.41
2022-09-24T22:10:03.062Z,12.45
2022-09-24T22:12:32.460Z,12.35
2022-09-24T22:15:02.950Z,12.19
2022-09-24T22:17:32.391Z,12.05
2022-09-24T22:20:04.792Z,12.02
2022-09-24T22:22:34.183Z,12.00
2022-09-24T22:25:03.589Z,11.95
2022-09-24T22:27:33.118Z,11.93
2022-09-24T22:30:02.703Z,11.97
2022-09-24T22:32:32.079Z,11.90
2022-09-24T22:35:16.590Z,11.85
2022-09-24T22:37:47.085Z,11.91
2022-09-24T22:40:17.070Z,11.93
2022-09-24T22:42:46.507Z,12.08
2022-09-24T22:45:15.988Z,12.13
2022-09-24T22:47:45.375Z,12.01
2022-09-24T22:50:17.485Z,12.05
2022-09-24T22:52:47.191Z,12.00
2022-09-24T22:55:16.641Z,12.04
2022-09-24T22:57:46.033Z,11.95
2022-09-24T23:00:18.929Z,11.92
2022-09-24T23:02:48.606Z,11.97
2022-09-24T23:05:20.696Z,12.01
2022-09-24T23:07:50.107Z,12.09
2022-09-24T23:10:19.812Z,11.99
2022-09-24T23:12:49.279Z,11.98
2022-09-24T23:15:19.239Z,12.01
2022-09-24T23:17:48.613Z,12.08
2022-09-24T23:20:21.976Z,12.01
2022-09-24T23:22:51.405Z,12.13
2022-09-24T23:25:20.791Z,12.22
2022-09-24T23:27:50.161Z,12.23
2022-09-24T23:30:20.070Z,12.20
2022-09-24T23:32:49.462Z,12.12
2022-09-24T23:35:21.461Z,12.18
2022-09-24T23:37:50.866Z,12.07
2022-09-24T23:40:20.347Z,12.04
2022-09-24T23:42:50.064Z,11.95
2022-09-24T23:45:19.556Z,11.91
2022-09-24T23:47:48.927Z,11.89
2022-09-24T23:50:20.943Z,11.95
2022-09-24T23:52:50.326Z,11.89
2022-09-24T23:55:19.908Z,11.84
2022-09-24T23:57:49.273Z,11.86
